createdAt,value
2022-08-29T00:01:00.554Z,0.70
2022-08-29T00:03:31.276Z,0.95
2022-08-29T00:06:03.449Z,0.80
2022-08-29T00:08:31.473Z,0.80
2022-08-29T00:11:02.622Z,0.70
2022-08-29T00:13:32.744Z,1.25
2022-08-29T00:16:03.475Z,0.90
2022-08-29T00:18:31.959Z,0.88
2022-08-29T00:21:01.492Z,1.00
2022-08-29T00:23:29.834Z,1.15
2022-08-29T00:25:57.861Z,1.00
2022-08-29T00:28:26.338Z,0.90
2022-08-29T00:30:54.442Z,0.80
2022-08-29T00:33:24.452Z,0.60
2022-08-29T00:35:52.948Z,0.75
2022-08-29T00:38:22.172Z,1.08
2022-08-29T00:40:57.528Z,1.00
2022-08-29T00:43:28.131Z,0.90
2022-08-29T00:46:06.929Z,0.60
2022-08-29T00:48:37.412Z,0.65
2022-08-29T00:51:09.355Z,0.70
2022-08-29T00:53:45.543Z,0.85
2022-08-29T00:56:17.945Z,1.42
2022-08-29T00:58:52.548Z,1.05
2022-08-29T01:01:21.191Z,0.98
2022-08-29T01:03:49.866Z,0.75
2022-08-29T01:06:20.128Z,0.80
2022-08-29T01:08:58.019Z,1.70
2022-08-29T01:11:46.518Z,0.95
2022-08-29T01:14:29.559Z,0.80
2022-08-29T01:17:00.236Z,2.05
2022-08-29T01:19:56.230Z,1.40
2022-08-29T01:22:52.677Z,0.90
2022-08-29T01:25:27.402Z,1.30
2022-08-29T01:28:04.334Z,1.85
2022-08-29T01:30:32.512Z,0.95
2022-08-29T01:33:01.083Z,1.15
2022-08-29T01:35:29.897Z,1.02
2022-08-29T01:37:58.023Z,1.00
2022-08-29T01:40:31.821Z,1.10
2022-08-29T01:42:59.804Z,0.90
2022-08-29T01:45:30.543Z,1.00
2022-08-29T01:48:01.859Z,1.35
2022-08-29T01:50:32.956Z,0.80
2022-08-29T01:53:00.993Z,1.08
2022-08-29T01:55:33.554Z,0.93
2022-08-29T01:58:01.783Z,1.38
2022-08-29T02:00:33.200Z,0.73
2022-08-29T02:03:03.323Z,0.90
2022-08-29T02:05:31.795Z,1.30
2022-08-29T02:08:00.605Z,1.45
2022-08-29T02:10:28.639Z,0.80
2022-08-29T02:12:58.427Z,0.98
2022-08-29T02:15:29.038Z,0.90
2022-08-29T02:17:57.108Z,0.77
2022-08-29T02:20:27.769Z,0.65
2022-08-29T02:22:58.120Z,0.82
2022-08-29T02:25:47.542Z,0.77
2022-08-29T02:28:18.452Z,0.85
2022-08-29T02:30:56.325Z,1.30
2022-08-29T02:33:26.497Z,0.90
2022-08-29T02:35:57.288Z,0.70
2022-08-29T02:38:26.958Z,1.30
2022-08-29T02:40:55.502Z,0.73
2022-08-29T02:43:26.137Z,0.85
2022-08-29T02:45:55.044Z,0.98
2022-08-29T02:48:23.211Z,0.90
2022-08-29T02:50:54.761Z,0.82
2022-08-29T02:53:24.289Z,1.00
2022-08-29T02:55:53.340Z,1.10
2022-08-29T02:58:22.574Z,0.90
2022-08-29T03:00:52.187Z,0.68
2022-08-29T03:03:20.163Z,0.80
2022-08-29T03:05:48.604Z,0.88
2022-08-29T03:08:16.614Z,0.90
2022-08-29T03:10:44.851Z,0.88
2022-08-29T03:13:12.714Z,0.60
2022-08-29T03:15:41.171Z,0.55
2022-08-29T03:18:11.012Z,0.60
2022-08-29T03:20:39.669Z,0.77
2022-08-29T03:23:07.771Z,0.90
2022-08-29T03:25:36.998Z,0.52
2022-08-29T03:28:05.838Z,1.10
2022-08-29T03:30:33.997Z,0.90
2022-08-29T03:33:02.461Z,0.93
2022-08-29T03:35:31.954Z,0.73
2022-08-29T03:38:00.242Z,0.80
2022-08-29T03:40:29.260Z,1.42
2022-08-29T03:42:57.478Z,0.60
2022-08-29T03:45:26.698Z,1.00
2022-08-29T03:47:54.867Z,0.95
2022-08-29T03:50:24.543Z,0.73
2022-08-29T03:52:56.807Z,0.80
2022-08-29T03:55:24.999Z,0.80
2022-08-29T03:57:53.000Z,1.13
2022-08-29T04:00:21.600Z,0.98
2022-08-29T04:02:50.650Z,0.85
2022-08-29T04:05:19.685Z,0.50
2022-08-29T04:07:50.759Z,0.75
2022-08-29T04:10:23.903Z,1.00
2022-08-29T04:12:54.729Z,0.80
2022-08-29T04:15:24.304Z,1.02
2022-08-29T04:17:54.444Z,0.68
2022-08-29T04:20:27.676Z,0.70
2022-08-29T04:22:57.049Z,0.90
2022-08-29T04:25:37.200Z,0.88
2022-08-29T04:28:06.881Z,0.90
2022-08-29T04:30:35.730Z,1.10
2022-08-29T04:33:04.048Z,1.02
2022-08-29T04:35:32.317Z,0.90
2022-08-29T04:38:00.334Z,0.75
2022-08-29T04:40:30.000Z,0.80
2022-08-29T04:43:03.256Z,0.85
2022-08-29T04:45:33.288Z,0.60
2022-08-29T04:48:03.700Z,0.85
2022-08-29T04:50:32.121Z,0.90
2022-08-29T04:53:00.241Z,0.70
2022-08-29T04:55:31.265Z,1.20
2022-08-29T04:57:59.500Z,0.70
2022-08-29T05:00:30.299Z,1.00
2022-08-29T05:03:00.235Z,1.10
2022-08-29T05:05:28.899Z,0.80
2022-08-29T05:07:56.875Z,1.33
2022-08-29T05:10:26.327Z,1.33
2022-08-29T05:12:55.985Z,1.00
2022-08-29T05:15:24.207Z,1.13
2022-08-29T05:17:54.215Z,0.82
2022-08-29T05:20:23.008Z,0.80
2022-08-29T05:22:51.278Z,1.00
2022-08-29T05:25:19.483Z,1.05
2022-08-29T05:27:47.775Z,0.90
2022-08-29T05:30:34.258Z,0.77
2022-08-29T05:33:03.832Z,0.55
2022-08-29T05:35:32.315Z,0.90
2022-08-29T05:38:00.437Z,1.00
2022-08-29T05:40:28.637Z,0.80
2022-08-29T05:42:57.039Z,0.90
2022-08-29T05:45:26.444Z,0.90
2022-08-29T05:47:55.961Z,0.95
2022-08-29T05:50:24.323Z,0.85
2022-08-29T05:52:54.467Z,0.75
2022-08-29T05:55:22.768Z,0.90
2022-08-29T05:57:53.465Z,0.70
2022-08-29T06:00:22.034Z,1.08
2022-08-29T06:02:54.776Z,0.90
2022-08-29T06:05:22.925Z,0.40
2022-08-29T06:07:51.013Z,0.70
2022-08-29T06:10:21.431Z,1.08
2022-08-29T06:12:49.609Z,0.95
2022-08-29T06:15:17.750Z,0.63
2022-08-29T06:17:46.224Z,0.95
2022-08-29T06:20:16.204Z,0.90
2022-08-29T06:22:44.433Z,0.70
2022-08-29T06:25:37.537Z,0.60
2022-08-29T06:28:03.693Z,0.60
2022-08-29T06:30:33.804Z,1.02
2022-08-29T06:33:02.910Z,0.80
2022-08-29T06:35:32.641Z,0.80
2022-08-29T06:38:03.682Z,0.70
2022-08-29T06:40:31.725Z,0.70
2022-08-29T06:43:00.068Z,0.82
2022-08-29T06:45:35.406Z,0.80
2022-08-29T06:48:05.716Z,1.00
2022-08-29T06:50:37.249Z,0.85
2022-08-29T06:53:26.533Z,0.90
2022-08-29T06:55:54.441Z,0.98
2022-08-29T06:58:22.695Z,0.60
2022-08-29T07:00:53.700Z,0.80
2022-08-29T07:03:34.347Z,0.80
2022-08-29T07:06:13.829Z,0.63
2022-08-29T07:08:55.365Z,0.80
2022-08-29T07:11:25.744Z,0.68
2022-08-29T07:13:54.162Z,1.58
2022-08-29T07:16:23.025Z,1.42
2022-08-29T07:18:51.279Z,1.50
2022-08-29T07:21:26.665Z,1.73
2022-08-29T07:23:56.257Z,1.70
2022-08-29T07:26:27.114Z,1.27
2022-08-29T07:29:03.152Z,1.30
2022-08-29T07:31:31.897Z,1.40
2022-08-29T07:34:02.565Z,1.20
2022-08-29T07:36:34.688Z,1.10
2022-08-29T07:39:03.643Z,1.90
2022-08-29T07:41:35.410Z,1.42
2022-08-29T07:44:03.540Z,0.95
2022-08-29T07:46:32.119Z,0.90
2022-08-29T07:49:00.790Z,0.98
2022-08-29T07:51:29.362Z,1.20
2022-08-29T07:53:59.290Z,0.98
2022-08-29T07:56:33.333Z,1.33
2022-08-29T07:59:03.810Z,0.82
2022-08-29T08:01:33.020Z,0.70
2022-08-29T08:04:01.286Z,1.13
2022-08-29T08:06:29.521Z,0.70
2022-08-29T08:09:00.266Z,0.75
2022-08-29T08:11:36.093Z,1.00
2022-08-29T08:14:04.999Z,0.93
2022-08-29T08:16:34.201Z,0.75
2022-08-29T08:19:02.338Z,0.90
2022-08-29T08:21:30.402Z,0.82
2022-08-29T08:23:59.045Z,1.10
2022-08-29T08:26:29.000Z,0.85
2022-08-29T08:29:00.087Z,1.27
2022-08-29T08:31:29.039Z,1.30
2022-08-29T08:33:57.740Z,1.00
2022-08-29T08:36:29.547Z,0.95
2022-08-29T08:38:59.411Z,1.35
2022-08-29T08:41:52.330Z,1.15
2022-08-29T08:44:52.013Z,1.52
2022-08-29T08:47:26.624Z,1.10
2022-08-29T08:50:01.809Z,1.60
2022-08-29T08:52:38.746Z,0.88
2022-08-29T08:55:15.432Z,1.20
2022-08-29T08:58:02.523Z,1.25
2022-08-29T09:00:40.229Z,1.77
2022-08-29T09:03:23.091Z,1.30
2022-08-29T09:06:03.259Z,0.90
2022-08-29T09:08:42.863Z,2.10
2022-08-29T09:11:20.969Z,1.20
2022-08-29T09:14:01.003Z,1.58
2022-08-29T09:16:35.283Z,1.58
2022-08-29T09:19:06.239Z,1.05
2022-08-29T09:21:44.055Z,1.65
2022-08-29T09:24:27.646Z,1.63
2022-08-29T09:26:57.067Z,2.85
2022-08-29T09:29:30.895Z,2.08
2022-08-29T09:32:09.074Z,2.13
2022-08-29T09:35:06.833Z,1.63
2022-08-29T09:37:33.407Z,1.60
2022-08-29T09:40:05.354Z,1.42
2022-08-29T09:42:40.649Z,1.73
2022-08-29T09:45:21.243Z,1.50
2022-08-29T09:47:49.537Z,1.15
2022-08-29T09:50:24.722Z,1.63
2022-08-29T09:53:00.886Z,2.00
2022-08-29T09:55:35.016Z,1.88
2022-08-29T09:58:06.045Z,1.75
2022-08-29T10:00:38.804Z,2.60
2022-08-29T10:03:10.171Z,1.70
2022-08-29T10:05:44.495Z,2.17
2022-08-29T10:08:35.196Z,1.73
2022-08-29T10:11:06.048Z,1.33
2022-08-29T10:13:43.622Z,0.98
2022-08-29T10:16:30.942Z,1.17
2022-08-29T10:19:03.488Z,1.40
2022-08-29T10:21:40.761Z,2.05
2022-08-29T10:24:40.633Z,1.30
2022-08-29T10:27:33.612Z,1.20
2022-08-29T10:30:13.535Z,1.25
2022-08-29T10:33:12.009Z,1.20
2022-08-29T10:35:54.845Z,1.55
2022-08-29T10:38:36.588Z,1.02
2022-08-29T10:41:16.643Z,1.05
2022-08-29T10:43:53.575Z,1.00
2022-08-29T10:46:40.100Z,1.90
2022-08-29T10:49:28.364Z,1.55
2022-08-29T10:52:04.173Z,1.33
2022-08-29T10:54:44.047Z,1.42
2022-08-29T10:57:19.280Z,1.23
2022-08-29T10:59:59.583Z,1.33
2022-08-29T11:02:33.156Z,1.48
2022-08-29T11:05:08.441Z,1.40
2022-08-29T11:07:45.244Z,1.48
2022-08-29T11:10:17.714Z,1.23
2022-08-29T11:12:56.769Z,1.60
2022-08-29T11:15:32.870Z,1.17
2022-08-29T11:18:07.032Z,2.30
2022-08-29T11:20:41.869Z,1.60
2022-08-29T11:23:16.913Z,1.85
2022-08-29T11:25:46.491Z,1.20
2022-08-29T11:28:22.155Z,1.30
2022-08-29T11:30:58.908Z,1.00
2022-08-29T11:33:44.116Z,1.42
2022-08-29T11:36:30.173Z,1.67
2022-08-29T11:39:33.336Z,0.82
2022-08-29T11:42:06.204Z,1.08
2022-08-29T11:44:36.723Z,0.85
2022-08-29T11:47:35.734Z,0.98
2022-08-29T11:50:23.263Z,0.85
2022-08-29T11:52:56.239Z,0.60
2022-08-29T11:55:34.098Z,0.80
2022-08-29T11:58:11.452Z,0.75
2022-08-29T12:00:44.351Z,0.80
2022-08-29T12:03:52.027Z,1.08
2022-08-29T12:06:47.300Z,1.10
2022-08-29T12:09:44.285Z,0.90
2022-08-29T12:12:41.069Z,1.15
2022-08-29T12:15:39.361Z,0.90
2022-08-29T12:18:36.880Z,1.20
2022-08-29T12:21:49.585Z,0.90
2022-08-29T12:24:37.785Z,0.82
2022-08-29T12:27:23.424Z,0.80
2022-08-29T12:29:54.116Z,1.20
2022-08-29T12:32:50.479Z,1.23
2022-08-29T12:35:36.026Z,0.82
2022-08-29T12:38:16.003Z,1.00
2022-08-29T12:41:00.162Z,1.08
2022-08-29T12:43:36.539Z,0.93
2022-08-29T12:46:13.947Z,1.00
2022-08-29T12:48:57.600Z,0.70
2022-08-29T12:54:00.991Z,0.90
2022-08-29T12:56:29.196Z,0.80
2022-08-29T12:59:01.271Z,0.93
2022-08-29T13:01:32.875Z,0.77
2022-08-29T13:04:04.348Z,0.80
2022-08-29T13:06:33.577Z,0.90
2022-08-29T13:09:01.804Z,0.70
2022-08-29T13:11:32.423Z,0.65
2022-08-29T13:14:12.302Z,0.60
2022-08-29T13:17:19.336Z,0.82
2022-08-29T13:20:29.480Z,0.50
2022-08-29T13:23:10.819Z,0.47
2022-08-29T13:26:10.011Z,0.50
2022-08-29T13:28:49.013Z,0.80
2022-08-29T13:31:37.832Z,0.93
2022-08-29T13:34:24.759Z,0.73
2022-08-29T13:36:59.500Z,0.65
2022-08-29T13:39:38.078Z,1.00
2022-08-29T13:42:32.396Z,0.75
2022-08-29T13:45:05.696Z,0.60
2022-08-29T13:47:51.421Z,1.15
2022-08-29T13:50:19.491Z,0.82
2022-08-29T13:52:47.664Z,0.80
2022-08-29T13:55:19.659Z,0.85
2022-08-29T13:57:50.770Z,0.68
2022-08-29T14:00:31.953Z,0.60
2022-08-29T14:03:03.017Z,0.63
2022-08-29T14:05:31.330Z,0.57
2022-08-29T14:07:59.309Z,0.68
2022-08-29T14:10:30.340Z,0.40
2022-08-29T14:12:58.315Z,0.60
2022-08-29T14:15:26.498Z,0.30
2022-08-29T14:17:54.629Z,0.73
2022-08-29T14:20:24.281Z,0.38
2022-08-29T14:22:52.418Z,0.50
2022-08-29T14:25:20.963Z,0.55
2022-08-29T14:27:51.055Z,0.30
2022-08-29T14:30:24.718Z,0.40
2022-08-29T14:32:53.098Z,0.50
2022-08-29T14:35:27.394Z,0.38
2022-08-29T14:38:01.438Z,0.60
2022-08-29T14:40:30.538Z,0.50
2022-08-29T14:43:01.732Z,0.40
2022-08-29T14:45:36.068Z,0.47
2022-08-29T14:48:14.821Z,0.60
2022-08-29T14:50:42.871Z,0.60
2022-08-29T14:53:12.676Z,0.88
2022-08-29T14:55:42.928Z,0.60
2022-08-29T14:58:11.038Z,0.50
2022-08-29T15:00:39.033Z,0.52
2022-08-29T15:03:07.161Z,0.70
2022-08-29T15:05:36.488Z,1.13
2022-08-29T15:08:14.998Z,1.30
2022-08-29T15:10:45.566Z,1.00
2022-08-29T15:13:15.615Z,0.93
2022-08-29T15:15:43.561Z,0.70
2022-08-29T15:18:48.119Z,0.95
2022-08-29T15:21:07.178Z,0.40
2022-08-29T15:23:38.130Z,0.40
2022-08-29T15:26:10.684Z,0.32
2022-08-29T15:28:39.077Z,0.50
2022-08-29T15:31:07.196Z,0.35
2022-08-29T15:33:35.405Z,0.32
2022-08-29T15:36:03.609Z,0.20
2022-08-29T15:38:31.620Z,0.20
2022-08-29T15:40:59.648Z,0.38
2022-08-29T15:43:28.975Z,0.50
2022-08-29T15:46:04.687Z,0.25
2022-08-29T15:48:34.189Z,0.32
2022-08-29T15:51:02.102Z,0.38
2022-08-29T15:53:30.066Z,0.20
2022-08-29T15:55:58.115Z,0.40
2022-08-29T15:58:26.170Z,0.40
2022-08-29T16:00:58.674Z,0.35
2022-08-29T16:03:26.543Z,0.55
2022-08-29T16:06:19.598Z,0.65
2022-08-29T16:08:47.699Z,0.60
2022-08-29T16:11:23.390Z,0.52
2022-08-29T16:13:58.094Z,0.40
2022-08-29T16:16:37.668Z,0.60
2022-08-29T16:19:05.971Z,0.52
2022-08-29T16:21:35.788Z,0.40
2022-08-29T16:24:04.818Z,1.02
2022-08-29T16:26:33.467Z,0.50
2022-08-29T16:29:01.395Z,0.30
2022-08-29T16:31:29.328Z,0.55
2022-08-29T16:33:58.941Z,0.80
2022-08-29T16:36:27.779Z,0.40
2022-08-29T16:38:56.147Z,0.40
2022-08-29T16:41:26.937Z,0.38
2022-08-29T16:43:55.167Z,0.20
2022-08-29T16:46:26.929Z,0.30
2022-08-29T16:49:00.625Z,0.40
2022-08-29T16:51:29.526Z,0.20
2022-08-29T16:53:59.458Z,0.45
2022-08-29T16:56:28.313Z,0.50
2022-08-29T16:59:03.023Z,0.35
2022-08-29T17:01:33.792Z,0.40
2022-08-29T17:04:05.824Z,0.40
2022-08-29T17:06:34.347Z,0.60
2022-08-29T17:09:04.242Z,0.40
2022-08-29T17:11:33.522Z,0.30
2022-08-29T17:14:00.335Z,0.22
2022-08-29T17:16:29.011Z,0.35
2022-08-29T17:18:57.216Z,0.20
2022-08-29T17:21:27.087Z,0.32
2022-08-29T17:23:56.310Z,0.30
2022-08-29T17:26:24.669Z,0.30
2022-08-29T17:28:53.039Z,0.40
2022-08-29T17:31:27.130Z,0.30
2022-08-29T17:33:55.196Z,0.38
2022-08-29T17:36:27.669Z,0.30
2022-08-29T17:38:56.022Z,0.50
2022-08-29T17:41:24.760Z,0.22
2022-08-29T17:43:54.781Z,0.38
2022-08-29T17:46:23.739Z,0.30
2022-08-29T17:48:51.727Z,0.30
2022-08-29T17:51:19.651Z,0.20
2022-08-29T17:53:49.565Z,0.40
2022-08-29T17:56:20.859Z,0.45
2022-08-29T17:58:49.328Z,0.20
2022-08-29T18:01:20.450Z,0.10
2022-08-29T18:03:48.863Z,0.28
2022-08-29T18:06:19.307Z,0.28
2022-08-29T18:08:51.386Z,0.10
2022-08-29T18:11:22.079Z,0.20
2022-08-29T18:13:50.078Z,0.20
2022-08-29T18:16:20.891Z,0.38
2022-08-29T18:18:48.836Z,0.40
2022-08-29T18:21:20.363Z,0.20
2022-08-29T18:23:48.685Z,0.30
2022-08-29T18:26:18.025Z,0.10
2022-08-29T18:28:46.345Z,0.40
2022-08-29T18:31:18.363Z,0.35
2022-08-29T18:34:00.105Z,0.50
2022-08-29T18:36:29.102Z,0.32
2022-08-29T18:38:57.099Z,0.40
2022-08-29T18:41:26.735Z,0.20
2022-08-29T18:43:54.956Z,0.40
2022-08-29T18:46:23.182Z,0.30
2022-08-29T18:48:51.378Z,0.50
2022-08-29T18:51:19.894Z,0.50
2022-08-29T18:53:48.386Z,0.38
2022-08-29T18:56:16.348Z,0.47
2022-08-29T18:58:45.754Z,0.50
2022-08-29T19:01:23.257Z,0.32
2022-08-29T19:04:00.618Z,0.40
2022-08-29T19:06:29.398Z,0.22
2022-08-29T19:08:58.439Z,0.35
2022-08-29T19:11:28.333Z,0.40
2022-08-29T19:13:57.844Z,0.30
2022-08-29T19:16:26.257Z,0.30
2022-08-29T19:18:54.557Z,0.35
2022-08-29T19:21:21.537Z,0.50
2022-08-29T19:23:52.575Z,0.50
2022-08-29T19:26:28.227Z,0.40
2022-08-29T19:28:59.458Z,0.43
2022-08-29T19:31:30.764Z,0.50
2022-08-29T19:34:05.072Z,0.80
2022-08-29T19:36:35.554Z,0.60
2022-08-29T19:39:03.598Z,0.50
2022-08-29T19:41:35.154Z,0.60
2022-08-29T19:44:04.719Z,0.70
2022-08-29T19:46:36.083Z,0.60
2022-08-29T19:51:34.152Z,0.60
2022-08-29T19:54:05.932Z,0.60
2022-08-29T19:56:37.036Z,0.70
2022-08-29T19:59:06.704Z,0.43
2022-08-29T20:01:44.987Z,0.50
2022-08-29T20:04:13.319Z,0.30
2022-08-29T20:06:41.298Z,0.80
2022-08-29T20:09:12.144Z,0.65
2022-08-29T20:11:43.870Z,0.70
2022-08-29T20:14:18.700Z,0.63
2022-08-29T20:16:46.773Z,0.98
2022-08-29T20:19:18.903Z,0.50
2022-08-29T20:21:47.385Z,0.73
2022-08-29T20:24:19.293Z,0.90
2022-08-29T20:26:49.638Z,0.63
2022-08-29T20:29:20.600Z,0.50
2022-08-29T20:31:49.404Z,0.40
2022-08-29T20:34:18.341Z,0.35
2022-08-29T20:37:06.782Z,0.50
2022-08-29T20:39:34.646Z,0.25
2022-08-29T20:42:02.869Z,0.40
2022-08-29T20:44:37.999Z,0.30
2022-08-29T20:47:07.982Z,0.30
2022-08-29T20:49:43.334Z,0.40
2022-08-29T20:54:41.874Z,0.50
2022-08-29T20:57:14.942Z,0.30
2022-08-29T20:59:47.820Z,0.40
2022-08-29T21:02:16.574Z,0.30
2022-08-29T21:05:07.952Z,0.20
2022-08-29T21:07:36.240Z,0.25
2022-08-29T21:10:10.668Z,0.28
2022-08-29T21:12:38.588Z,0.20
2022-08-29T21:15:09.217Z,0.20
2022-08-29T21:17:37.391Z,0.20
2022-08-29T21:20:06.105Z,0.10
2022-08-29T21:25:16.663Z,0.20
2022-08-29T21:27:44.636Z,0.28
2022-08-29T21:30:45.389Z,0.17
2022-08-29T21:33:13.815Z,0.20
2022-08-29T21:35:42.405Z,0.20
2022-08-29T21:38:13.617Z,0.10
2022-08-29T21:40:50.547Z,0.25
2022-08-29T21:43:19.149Z,0.10
2022-08-29T21:45:49.079Z,0.30
2022-08-29T21:48:19.911Z,0.30
2022-08-29T21:50:54.081Z,0.10
2022-08-29T21:55:50.282Z,0.15
2022-08-29T21:58:19.959Z,0.10
2022-08-29T22:00:50.916Z,0.10
2022-08-29T22:03:22.216Z,0.10
2022-08-29T22:05:50.627Z,0.10
2022-08-29T22:08:26.786Z,0.10
2022-08-29T22:13:22.501Z,0.15
2022-08-29T22:16:09.671Z,0.13
2022-08-29T22:18:41.169Z,0.30
2022-08-29T22:21:13.384Z,0.20
2022-08-29T22:23:44.544Z,0.00
2022-08-29T22:26:12.971Z,0.10
2022-08-29T22:28:49.006Z,0.20
2022-08-29T22:31:19.062Z,0.10
2022-08-29T22:33:50.004Z,0.38
2022-08-29T22:36:27.600Z,0.10
2022-08-29T22:38:56.721Z,0.25
2022-08-29T22:41:25.541Z,0.20
2022-08-29T22:44:35.807Z,0.22
2022-08-29T22:46:47.979Z,0.10
2022-08-29T22:49:16.243Z,0.20
2022-08-29T22:51:53.897Z,0.20
2022-08-29T22:54:37.301Z,0.00
2022-08-29T22:57:08.006Z,0.20
2022-08-29T22:59:37.164Z,0.10
2022-08-29T23:02:10.820Z,0.10
2022-08-29T23:04:40.121Z,0.10
2022-08-29T23:07:08.703Z,0.20
2022-08-29T23:09:44.472Z,0.10
2022-08-29T23:12:14.602Z,0.10
2022-08-29T23:14:46.578Z,0.17
2022-08-29T23:17:17.630Z,0.10
2022-08-29T23:20:06.980Z,0.00
2022-08-29T23:22:35.113Z,0.10
2022-08-29T23:25:05.150Z,0.10
2022-08-29T23:27:34.543Z,0.30
2022-08-29T23:30:03.128Z,0.32
2022-08-29T23:32:33.973Z,0.20
2022-08-29T23:35:05.835Z,0.30
2022-08-29T23:37:34.960Z,0.20
2022-08-29T23:40:03.784Z,0.20
2022-08-29T23:42:32.756Z,0.20
2022-08-29T23:45:00.948Z,0.10
2022-08-29T23:47:31.813Z,0.20
2022-08-29T23:50:09.499Z,0.10
2022-08-29T23:52:39.522Z,0.00
2022-08-29T23:55:12.245Z,0.22
2022-08-29T23:57:41.088Z,0.10
